sensor_id;sensor_type;location;lat;lon;timestamp;pressure;altitude;pressure_sealevel;temperature;humidity
27202;BME280;14717;46.924;15.474;2023-05-17T00:02:09;97191.41;;;11.39;97.82
27202;BME280;14717;46.924;15.474;2023-05-17T00:04:35;97188.75;;;11.34;97.60
27202;BME280;14717;46.924;15.474;2023-05-17T00:07:00;97194.28;;;11.34;98.52
27202;BME280;14717;46.924;15.474;2023-05-17T00:09:26;97189.28;;;11.36;99.01
27202;BME280;14717;46.924;15.474;2023-05-17T00:11:51;97200.84;;;11.38;98.63
27202;BME280;14717;46.924;15.474;2023-05-17T00:14:16;97192.53;;;11.38;98.11
27202;BME280;14717;46.924;15.474;2023-05-17T00:16:42;97189.28;;;11.36;99.57
27202;BME280;14717;46.924;15.474;2023-05-17T00:19:07;97188.97;;;11.37;100.00
27202;BME280;14717;46.924;15.474;2023-05-17T00:21:35;97182.59;;;11.37;99.35
27202;BME280;14717;46.924;15.474;2023-05-17T00:24:01;97188.66;;;11.39;98.08
27202;BME280;14717;46.924;15.474;2023-05-17T00:26:26;97188.13;;;11.37;98.00
27202;BME280;14717;46.924;15.474;2023-05-17T00:28:51;97188.31;;;11.40;97.96
27202;BME280;14717;46.924;15.474;2023-05-17T00:31:17;97187.69;;;11.43;96.49
27202;BME280;14717;46.924;15.474;2023-05-17T00:33:42;97191.19;;;11.48;95.46
27202;BME280;14717;46.924;15.474;2023-05-17T00:36:08;97191.19;;;11.48;94.93
27202;BME280;14717;46.924;15.474;2023-05-17T00:38:33;97189.91;;;11.54;95.19
27202;BME280;14717;46.924;15.474;2023-05-17T00:40:58;97190.72;;;11.55;95.04
27202;BME280;14717;46.924;15.474;2023-05-17T00:43:24;97193.06;;;11.61;94.72
27202;BME280;14717;46.924;15.474;2023-05-17T00:45:50;97184.13;;;11.64;95.45
27202;BME280;14717;46.924;15.474;2023-05-17T00:48:16;97186.91;;;11.64;93.96
27202;BME280;14717;46.924;15.474;2023-05-17T00:50:43;97185.78;;;11.65;94.58
27202;BME280;14717;46.924;15.474;2023-05-17T00:53:08;97177.16;;;11.67;95.23
27202;BME280;14717;46.924;15.474;2023-05-17T00:55:40;97175.69;;;11.69;95.74
27202;BME280;14717;46.924;15.474;2023-05-17T00:58:06;97181.84;;;11.66;93.03
27202;BME280;14717;46.924;15.474;2023-05-17T01:00:31;97170.66;;;11.71;94.24
27202;BME280;14717;46.924;15.474;2023-05-17T01:02:58;97172.16;;;11.77;92.30
27202;BME280;14717;46.924;15.474;2023-05-17T01:05:23;97173.69;;;11.83;91.99
27202;BME280;14717;46.924;15.474;2023-05-17T01:07:52;97174.66;;;11.87;92.24
27202;BME280;14717;46.924;15.474;2023-05-17T01:10:18;97176.50;;;11.91;91.10
27202;BME280;14717;46.924;15.474;2023-05-17T01:13:01;97174.72;;;11.95;91.50
27202;BME280;14717;46.924;15.474;2023-05-17T01:15:32;97185.31;;;12.02;90.74
27202;BME280;14717;46.924;15.474;2023-05-17T01:18:11;97183.88;;;12.04;89.54
27202;BME280;14717;46.924;15.474;2023-05-17T01:20:42;97180.91;;;12.01;90.39
27202;BME280;14717;46.924;15.474;2023-05-17T01:28:58;97183.88;;;12.04;89.84
27202;BME280;14717;46.924;15.474;2023-05-17T01:31:25;97180.28;;;12.04;90.46
27202;BME280;14717;46.924;15.474;2023-05-17T01:33:50;97192.50;;;12.03;91.07
27202;BME280;14717;46.924;15.474;2023-05-17T01:36:16;97178.66;;;12.03;91.06
27202;BME280;14717;46.924;15.474;2023-05-17T01:38:41;97190.59;;;12.12;89.63
27202;BME280;14717;46.924;15.474;2023-05-17T01:41:12;97186.69;;;12.13;90.04
27202;BME280;14717;46.924;15.474;2023-05-17T01:43:59;97185.53;;;12.14;90.58
27202;BME280;14717;46.924;15.474;2023-05-17T01:46:37;97184.91;;;12.17;89.38
27202;BME280;14717;46.924;15.474;2023-05-17T01:49:24;97187.53;;;12.22;89.23
27202;BME280;14717;46.924;15.474;2023-05-17T01:54:27;97195.84;;;12.22;89.51
27202;BME280;14717;46.924;15.474;2023-05-17T01:56:57;97205.94;;;12.18;89.54
27202;BME280;14717;46.924;15.474;2023-05-17T01:59:23;97201.38;;;12.22;89.74
27202;BME280;14717;46.924;15.474;2023-05-17T02:01:57;97205.78;;;12.23;89.58
27202;BME280;14717;46.924;15.474;2023-05-17T02:04:28;97193.56;;;12.24;89.66
27202;BME280;14717;46.924;15.474;2023-05-17T02:06:54;97196.66;;;12.22;90.23
27202;BME280;14717;46.924;15.474;2023-05-17T02:09:19;97198.28;;;12.23;89.71
27202;BME280;14717;46.924;15.474;2023-05-17T02:11:45;97198.28;;;12.23;90.07
27202;BME280;14717;46.924;15.474;2023-05-17T02:14:10;97194.91;;;12.26;89.82
27202;BME280;14717;46.924;15.474;2023-05-17T02:16:35;97195.22;;;12.25;89.99
27202;BME280;14717;46.924;15.474;2023-05-17T02:19:01;97200.44;;;12.26;90.11
27202;BME280;14717;46.924;15.474;2023-05-17T02:21:26;97191.94;;;12.23;90.93
27202;BME280;14717;46.924;15.474;2023-05-17T02:23:51;97204.16;;;12.22;91.17
27202;BME280;14717;46.924;15.474;2023-05-17T02:26:17;97206.44;;;12.20;91.14
27202;BME280;14717;46.924;15.474;2023-05-17T02:28:42;97207.41;;;12.24;89.45
27202;BME280;14717;46.924;15.474;2023-05-17T02:31:07;97215.13;;;12.35;87.75
27202;BME280;14717;46.924;15.474;2023-05-17T02:33:33;97205.72;;;12.44;85.90
27202;BME280;14717;46.924;15.474;2023-05-17T02:35:59;97218.25;;;12.50;86.82
27202;BME280;14717;46.924;15.474;2023-05-17T02:38:24;97216.19;;;12.56;85.07
27202;BME280;14717;46.924;15.474;2023-05-17T02:40:50;97214.72;;;12.58;84.44
27202;BME280;14717;46.924;15.474;2023-05-17T02:43:15;97223.19;;;12.62;84.49
27202;BME280;14717;46.924;15.474;2023-05-17T02:45:42;97222.53;;;12.56;86.97
27202;BME280;14717;46.924;15.474;2023-05-17T02:48:07;97221.88;;;12.51;86.19
27202;BME280;14717;46.924;15.474;2023-05-17T02:50:33;97215.03;;;12.57;84.93
27202;BME280;14717;46.924;15.474;2023-05-17T02:52:58;97217.47;;;12.58;85.14
27202;BME280;14717;46.924;15.474;2023-05-17T02:55:24;97222.38;;;12.61;85.43
27202;BME280;14717;46.924;15.474;2023-05-17T02:58:07;97218.03;;;12.69;83.81
27202;BME280;14717;46.924;15.474;2023-05-17T03:00:35;97214.25;;;12.73;83.34
27202;BME280;14717;46.924;15.474;2023-05-17T03:03:04;97209.56;;;12.74;83.61
27202;BME280;14717;46.924;15.474;2023-05-17T03:05:37;97207.59;;;12.74;83.60
27202;BME280;14717;46.924;15.474;2023-05-17T03:08:03;97210.03;;;12.75;83.09
27202;BME280;14717;46.924;15.474;2023-05-17T03:10:57;97203.53;;;12.80;83.16
27202;BME280;14717;46.924;15.474;2023-05-17T03:13:25;97210.09;;;12.84;81.77
27202;BME280;14717;46.924;15.474;2023-05-17T03:15:50;97208.81;;;12.90;81.64
27202;BME280;14717;46.924;15.474;2023-05-17T03:18:21;97210.44;;;12.91;81.54
27202;BME280;14717;46.924;15.474;2023-05-17T03:20:46;97219.22;;;12.93;82.04
27202;BME280;14717;46.924;15.474;2023-05-17T03:23:12;97214.53;;;12.93;81.13
27202;BME280;14717;46.924;15.474;2023-05-17T03:25:37;97227.56;;;12.93;81.35
27202;BME280;14717;46.924;15.474;2023-05-17T03:28:05;97219.91;;;12.90;81.92
27202;BME280;14717;46.924;15.474;2023-05-17T03:30:34;97221.66;;;12.86;81.68
27202;BME280;14717;46.924;15.474;2023-05-17T03:32:59;97229.34;;;12.89;82.09
27202;BME280;14717;46.924;15.474;2023-05-17T03:35:25;97228.22;;;12.90;81.90
27202;BME280;14717;46.924;15.474;2023-05-17T03:37:50;97250.03;;;12.91;82.64
27202;BME280;14717;46.924;15.474;2023-05-17T03:40:16;97256.25;;;12.88;82.36
27202;BME280;14717;46.924;15.474;2023-05-17T03:43:13;97267.03;;;12.90;81.98
27202;BME280;14717;46.924;15.474;2023-05-17T03:45:50;97265.22;;;12.85;82.70
27202;BME280;14717;46.924;15.474;2023-05-17T03:48:28;97274.34;;;12.86;83.12
27202;BME280;14717;46.924;15.474;2023-05-17T03:51:07;97286.59;;;12.85;83.83
27202;BME280;14717;46.924;15.474;2023-05-17T03:53:34;97292.44;;;12.83;83.01
27202;BME280;14717;46.924;15.474;2023-05-17T03:59:32;97305.47;;;12.83;84.89
27202;BME280;14717;46.924;15.474;2023-05-17T04:01:58;97315.88;;;12.77;84.32
27202;BME280;14717;46.924;15.474;2023-05-17T04:04:23;97315.75;;;12.82;83.21
27202;BME280;14717;46.924;15.474;2023-05-17T04:13:47;97341.22;;;12.93;82.21
27202;BME280;14717;46.924;15.474;2023-05-17T04:20:30;97336.50;;;12.93;83.29
27202;BME280;14717;46.924;15.474;2023-05-17T04:23:30;97356.41;;;12.95;82.35
27202;BME280;14717;46.924;15.474;2023-05-17T04:26:13;97348.09;;;12.95;83.70
27202;BME280;14717;46.924;15.474;2023-05-17T04:31:55;97372.53;;;12.85;85.42
27202;BME280;14717;46.924;15.474;2023-05-17T04:34:28;97370.50;;;12.77;86.49
27202;BME280;14717;46.924;15.474;2023-05-17T04:36:56;97380.75;;;12.76;86.65
27202;BME280;14717;46.924;15.474;2023-05-17T04:39:21;97373.91;;;12.74;85.75
27202;BME280;14717;46.924;15.474;2023-05-17T04:41:47;97372.78;;;12.75;85.35
27202;BME280;14717;46.924;15.474;2023-05-17T04:44:12;97370.44;;;12.69;87.25
27202;BME280;14717;46.924;15.474;2023-05-17T04:46:38;97375.16;;;12.68;86.27
27202;BME280;14717;46.924;15.474;2023-05-17T04:49:03;97377.13;;;12.68;87.75
27202;BME280;14717;46.924;15.474;2023-05-17T04:51:29;97379.72;;;12.64;89.20
27202;BME280;14717;46.924;15.474;2023-05-17T04:53:54;97377.28;;;12.71;88.05
27202;BME280;14717;46.924;15.474;2023-05-17T04:56:25;97389.00;;;12.68;87.82
27202;BME280;14717;46.924;15.474;2023-05-17T04:58:50;97383.47;;;12.68;88.66
27202;BME280;14717;46.924;15.474;2023-05-17T05:01:15;97383.47;;;12.68;88.03
27202;BME280;14717;46.924;15.474;2023-05-17T05:03:41;97370.78;;;12.67;86.88
27202;BME280;14717;46.924;15.474;2023-05-17T05:06:06;97371.13;;;12.74;87.54
27202;BME280;14717;46.924;15.474;2023-05-17T05:08:32;97363.44;;;12.71;87.03
27202;BME280;14717;46.924;15.474;2023-05-17T05:10:58;97361.69;;;12.75;86.77
27202;BME280;14717;46.924;15.474;2023-05-17T05:13:23;97362.66;;;12.79;85.77
27202;BME280;14717;46.924;15.474;2023-05-17T05:15:49;97359.78;;;12.84;86.31
27202;BME280;14717;46.924;15.474;2023-05-17T05:18:15;97355.59;;;12.95;86.71
27202;BME280;14717;46.924;15.474;2023-05-17T05:20:40;97351.72;;;13.04;86.14
27202;BME280;14717;46.924;15.474;2023-05-17T05:23:05;97357.81;;;13.15;85.08
27202;BME280;14717;46.924;15.474;2023-05-17T05:25:31;97364.66;;;13.25;85.10
27202;BME280;14717;46.924;15.474;2023-05-17T05:27:57;97365.16;;;13.27;84.10
27202;BME280;14717;46.924;15.474;2023-05-17T05:30:22;97367.63;;;13.29;83.53
27202;BME280;14717;46.924;15.474;2023-05-17T05:32:49;97367.78;;;13.32;83.46
27202;BME280;14717;46.924;15.474;2023-05-17T05:35:14;97370.72;;;13.27;82.48
27202;BME280;14717;46.924;15.474;2023-05-17T05:37:41;97367.63;;;13.29;83.01
27202;BME280;14717;46.924;15.474;2023-05-17T05:40:08;97373.47;;;13.27;82.99
27202;BME280;14717;46.924;15.474;2023-05-17T05:42:33;97375.94;;;13.29;80.89
27202;BME280;14717;46.924;15.474;2023-05-17T05:44:59;97376.09;;;13.32;81.00
27202;BME280;14717;46.924;15.474;2023-05-17T05:47:24;97387.72;;;13.34;81.29
27202;BME280;14717;46.924;15.474;2023-05-17T05:49:50;97386.88;;;13.34;79.93
27202;BME280;14717;46.924;15.474;2023-05-17T05:52:15;97403.72;;;13.37;78.60
27202;BME280;14717;46.924;15.474;2023-05-17T05:54:43;97404.22;;;13.39;80.58
27202;BME280;14717;46.924;15.474;2023-05-17T05:57:09;97400.28;;;13.40;80.29
27202;BME280;14717;46.924;15.474;2023-05-17T05:59:34;97409.63;;;13.44;78.64
27202;BME280;14717;46.924;15.474;2023-05-17T06:02:00;97414.72;;;13.51;77.45
27202;BME280;14717;46.924;15.474;2023-05-17T06:04:25;97424.50;;;13.57;77.09
27202;BME280;14717;46.924;15.474;2023-05-17T06:06:53;97424.53;;;13.65;74.89
27202;BME280;14717;46.924;15.474;2023-05-17T06:09:19;97433.03;;;13.68;75.04
27202;BME280;14717;46.924;15.474;2023-05-17T06:11:44;97431.56;;;13.71;73.43
27202;BME280;14717;46.924;15.474;2023-05-17T06:14:10;97439.75;;;13.76;72.84
27202;BME280;14717;46.924;15.474;2023-05-17T06:16:35;97449.53;;;13.82;69.60
27202;BME280;14717;46.924;15.474;2023-05-17T06:19:01;97455.31;;;13.85;69.87
27202;BME280;14717;46.924;15.474;2023-05-17T06:21:27;97455.09;;;13.82;70.91
27202;BME280;14717;46.924;15.474;2023-05-17T06:23:52;97462.31;;;13.83;71.02
27202;BME280;14717;46.924;15.474;2023-05-17T06:26:17;97456.09;;;13.86;69.56
27202;BME280;14717;46.924;15.474;2023-05-17T06:28:43;97456.75;;;13.83;70.12
27202;BME280;14717;46.924;15.474;2023-05-17T06:31:08;97466.06;;;13.87;69.25
27202;BME280;14717;46.924;15.474;2023-05-17T06:33:33;97467.56;;;13.93;69.81
27202;BME280;14717;46.924;15.474;2023-05-17T06:35:59;97467.56;;;13.93;68.80
27202;BME280;14717;46.924;15.474;2023-05-17T06:38:24;97475.72;;;13.98;68.80
27202;BME280;14717;46.924;15.474;2023-05-17T06:40:54;97481.28;;;13.98;68.32
27202;BME280;14717;46.924;15.474;2023-05-17T06:43:20;97474.47;;;14.04;68.44
27202;BME280;14717;46.924;15.474;2023-05-17T06:45:45;97479.38;;;14.06;68.25
27202;BME280;14717;46.924;15.474;2023-05-17T06:48:11;97481.00;;;14.07;69.16
27202;BME280;14717;46.924;15.474;2023-05-17T06:50:36;97484.28;;;14.09;66.75
27202;BME280;14717;46.924;15.474;2023-05-17T06:53:02;97487.56;;;14.11;66.72
27202;BME280;14717;46.924;15.474;2023-05-17T06:55:28;97485.28;;;14.13;67.14
27202;BME280;14717;46.924;15.474;2023-05-17T06:57:53;97492.59;;;14.09;66.51
27202;BME280;14717;46.924;15.474;2023-05-17T07:00:19;97491.66;;;14.14;67.42
27202;BME280;14717;46.924;15.474;2023-05-17T07:02:45;97507.50;;;14.13;67.15
27202;BME280;14717;46.924;15.474;2023-05-17T07:05:11;97497.19;;;14.14;67.60
27202;BME280;14717;46.924;15.474;2023-05-17T07:07:36;97504.09;;;14.16;66.14
27202;BME280;14717;46.924;15.474;2023-05-17T07:10:02;97504.25;;;14.20;67.80
27202;BME280;14717;46.924;15.474;2023-05-17T07:12:28;97506.88;;;14.16;66.48
27202;BME280;14717;46.924;15.474;2023-05-17T07:14:53;97507.34;;;14.18;68.30
27202;BME280;14717;46.924;15.474;2023-05-17T07:17:18;97515.69;;;14.18;67.04
27202;BME280;14717;46.924;15.474;2023-05-17T07:19:44;97513.88;;;14.22;66.07
27202;BME280;14717;46.924;15.474;2023-05-17T07:22:09;97518.31;;;14.23;66.86
27202;BME280;14717;46.924;15.474;2023-05-17T07:24:35;97522.88;;;14.28;67.29
27202;BME280;14717;46.924;15.474;2023-05-17T07:27:01;97518.00;;;14.33;68.14
27202;BME280;14717;46.924;15.474;2023-05-17T07:29:26;97518.31;;;14.40;66.27
27202;BME280;14717;46.924;15.474;2023-05-17T07:31:51;97520.63;;;14.47;67.51
27202;BME280;14717;46.924;15.474;2023-05-17T07:34:16;97514.91;;;14.51;64.94
27202;BME280;14717;46.924;15.474;2023-05-17T07:36:44;97523.56;;;14.50;62.84
27202;BME280;14717;46.924;15.474;2023-05-17T07:39:09;97524.88;;;14.52;62.29
27202;BME280;14717;46.924;15.474;2023-05-17T07:41:35;97526.34;;;14.58;64.58
27202;BME280;14717;46.924;15.474;2023-05-17T07:44:00;97532.56;;;14.55;63.36
27202;BME280;14717;46.924;15.474;2023-05-17T07:46:25;97528.97;;;14.63;63.89
27202;BME280;14717;46.924;15.474;2023-05-17T07:48:51;97532.72;;;14.59;62.96
27202;BME280;14717;46.924;15.474;2023-05-17T07:51:16;97534.84;;;14.62;63.55
27202;BME280;14717;46.924;15.474;2023-05-17T07:53:42;97538.13;;;14.64;62.28
27202;BME280;14717;46.924;15.474;2023-05-17T07:56:07;97537.16;;;14.68;61.82
27202;BME280;14717;46.924;15.474;2023-05-17T07:58:33;97539.13;;;14.68;61.85
27202;BME280;14717;46.924;15.474;2023-05-17T08:01:16;97530.47;;;14.69;62.41
27202;BME280;14717;46.924;15.474;2023-05-17T08:03:42;97544.34;;;14.78;63.09
27202;BME280;14717;46.924;15.474;2023-05-17T08:06:15;97544.03;;;14.79;62.45
27202;BME280;14717;46.924;15.474;2023-05-17T08:08:53;97548.63;;;14.92;63.81
27202;BME280;14717;46.924;15.474;2023-05-17T08:11:18;97563.81;;;14.78;61.37
27202;BME280;14717;46.924;15.474;2023-05-17T08:13:44;97560.56;;;14.84;64.09
27202;BME280;14717;46.924;15.474;2023-05-17T08:16:09;97561.19;;;14.89;63.44
27202;BME280;14717;46.924;15.474;2023-05-17T08:18:36;97562.84;;;14.90;62.04
27202;BME280;14717;46.924;15.474;2023-05-17T08:21:02;97580.84;;;14.85;61.10
27202;BME280;14717;46.924;15.474;2023-05-17T08:23:27;97573.28;;;14.93;60.83
27202;BME280;14717;46.924;15.474;2023-05-17T08:25:52;97584.09;;;14.95;59.93
27202;BME280;14717;46.924;15.474;2023-05-17T08:28:18;97575.44;;;14.96;60.30
27202;BME280;14717;46.924;15.474;2023-05-17T08:30:43;97576.91;;;15.02;60.10
27202;BME280;14717;46.924;15.474;2023-05-17T08:33:09;97573.31;;;15.10;61.95
27202;BME280;14717;46.924;15.474;2023-05-17T08:35:37;97582.16;;;15.12;60.73
27202;BME280;14717;46.924;15.474;2023-05-17T08:38:02;97587.09;;;15.15;59.62
27202;BME280;14717;46.924;15.474;2023-05-17T08:40:27;97575.97;;;15.15;59.83
27202;BME280;14717;46.924;15.474;2023-05-17T08:42:53;97580.03;;;15.26;59.11
27202;BME280;14717;46.924;15.474;2023-05-17T08:45:18;97589.38;;;15.30;59.32
27202;BME280;14717;46.924;15.474;2023-05-17T08:47:44;97587.41;;;15.31;57.44
27202;BME280;14717;46.924;15.474;2023-05-17T08:50:11;97593.78;;;15.23;57.09
27202;BME280;14717;46.924;15.474;2023-05-17T08:52:38;97599.53;;;15.18;56.14
27202;BME280;14717;46.924;15.474;2023-05-17T08:55:05;97594.91;;;15.13;58.02
27202;BME280;14717;46.924;15.474;2023-05-17T08:57:33;97597.19;;;15.11;59.21
27202;BME280;14717;46.924;15.474;2023-05-17T09:00:00;97594.56;;;15.06;58.47
27202;BME280;14717;46.924;15.474;2023-05-17T09:02:25;97592.78;;;15.10;58.01
27202;BME280;14717;46.924;15.474;2023-05-17T09:04:54;97583.44;;;15.15;57.42
27202;BME280;14717;46.924;15.474;2023-05-17T09:07:23;97593.63;;;15.19;57.66
27202;BME280;14717;46.924;15.474;2023-05-17T09:09:52;97580.19;;;15.21;58.41
27202;BME280;14717;46.924;15.474;2023-05-17T09:12:34;97595.44;;;15.24;58.33
27202;BME280;14717;46.924;15.474;2023-05-17T09:15:17;97592.81;;;15.27;58.36
27202;BME280;14717;46.924;15.474;2023-05-17T09:17:52;97603.13;;;15.27;58.43
27202;BME280;14717;46.924;15.474;2023-05-17T09:20:27;97596.25;;;15.24;59.07
27202;BME280;14717;46.924;15.474;2023-05-17T09:23:09;97596.53;;;15.14;58.89
27202;BME280;14717;46.924;15.474;2023-05-17T09:25:37;97608.81;;;15.05;58.23
27202;BME280;14717;46.924;15.474;2023-05-17T09:28:04;97604.75;;;15.02;58.03
27202;BME280;14717;46.924;15.474;2023-05-17T09:30:32;97621.28;;;14.99;59.52
27202;BME280;14717;46.924;15.474;2023-05-17T09:33:05;97614.38;;;15.05;60.25
27202;BME280;14717;46.924;15.474;2023-05-17T09:35:32;97616.53;;;15.16;60.64
27202;BME280;14717;46.924;15.474;2023-05-17T09:40:41;97632.09;;;15.17;58.91
27202;BME280;14717;46.924;15.474;2023-05-17T09:43:07;97627.97;;;15.06;58.66
27202;BME280;14717;46.924;15.474;2023-05-17T09:45:34;97634.88;;;15.17;58.81
27202;BME280;14717;46.924;15.474;2023-05-17T09:48:15;97634.25;;;15.20;57.64
27202;BME280;14717;46.924;15.474;2023-05-17T09:50:48;97640.13;;;15.27;59.26
27202;BME280;14717;46.924;15.474;2023-05-17T09:53:31;97647.28;;;15.11;57.95
27202;BME280;14717;46.924;15.474;2023-05-17T09:56:03;97645.50;;;15.07;56.33
27202;BME280;14717;46.924;15.474;2023-05-17T09:58:33;97643.69;;;15.02;58.09
27202;BME280;14717;46.924;15.474;2023-05-17T10:01:01;97651.56;;;15.00;59.18
27202;BME280;14717;46.924;15.474;2023-05-17T10:03:35;97646.00;;;15.00;57.02
27202;BME280;14717;46.924;15.474;2023-05-17T10:06:05;97645.00;;;15.13;57.07
27202;BME280;14717;46.924;15.474;2023-05-17T10:08:31;97646.03;;;15.17;58.19
27202;BME280;14717;46.924;15.474;2023-05-17T10:11:07;97649.94;;;15.25;57.10
27202;BME280;14717;46.924;15.474;2023-05-17T10:13:39;97659.44;;;15.15;56.43
27202;BME280;14717;46.924;15.474;2023-05-17T10:16:06;97655.94;;;15.01;57.93
27202;BME280;14717;46.924;15.474;2023-05-17T10:18:32;97655.31;;;14.96;56.68
27202;BME280;14717;46.924;15.474;2023-05-17T10:20:57;97665.47;;;15.00;58.35
27202;BME280;14717;46.924;15.474;2023-05-17T10:23:25;97660.69;;;14.92;57.85
27202;BME280;14717;46.924;15.474;2023-05-17T10:25:55;97661.19;;;14.86;56.53
27202;BME280;14717;46.924;15.474;2023-05-17T10:28:33;97658.38;;;14.78;59.45
27202;BME280;14717;46.924;15.474;2023-05-17T10:31:00;97671.81;;;14.76;57.61
27202;BME280;14717;46.924;15.474;2023-05-17T10:33:34;97665.56;;;14.79;57.27
27202;BME280;14717;46.924;15.474;2023-05-17T10:36:01;97667.03;;;14.68;58.05
27202;BME280;14717;46.924;15.474;2023-05-17T10:38:34;97673.72;;;14.67;58.00
27202;BME280;14717;46.924;15.474;2023-05-17T10:41:04;97676.66;;;14.62;58.12
27202;BME280;14717;46.924;15.474;2023-05-17T10:43:36;97671.94;;;14.62;56.57
27202;BME280;14717;46.924;15.474;2023-05-17T10:46:11;97672.44;;;14.64;57.91
27202;BME280;14717;46.924;15.474;2023-05-17T10:48:42;97676.34;;;14.72;58.60
27202;BME280;14717;46.924;15.474;2023-05-17T10:51:29;97679.16;;;14.80;58.29
27202;BME280;14717;46.924;15.474;2023-05-17T10:54:06;97690.13;;;14.77;56.33
27202;BME280;14717;46.924;15.474;2023-05-17T10:56:47;97686.19;;;14.69;58.16
27202;BME280;14717;46.924;15.474;2023-05-17T10:59:24;97688.50;;;14.76;57.25
27202;BME280;14717;46.924;15.474;2023-05-17T11:02:03;97685.72;;;14.76;56.05
27202;BME280;14717;46.924;15.474;2023-05-17T11:04:41;97692.41;;;14.75;56.25
27202;BME280;14717;46.924;15.474;2023-05-17T11:12:36;97694.88;;;14.76;56.49
27202;BME280;14717;46.924;15.474;2023-05-17T11:15:06;97693.75;;;14.86;56.43
27202;BME280;14717;46.924;15.474;2023-05-17T11:25:08;97704.97;;;14.64;56.63
27202;BME280;14717;46.924;15.474;2023-05-17T11:27:45;97711.03;;;14.66;57.75
27202;BME280;14717;46.924;15.474;2023-05-17T11:30:26;97708.75;;;14.68;57.12
27202;BME280;14717;46.924;15.474;2023-05-17T11:35:30;97716.78;;;14.78;58.41
27202;BME280;14717;46.924;15.474;2023-05-17T11:38:22;97728.38;;;14.63;58.22
27202;BME280;14717;46.924;15.474;2023-05-17T11:40:52;97732.09;;;14.58;59.31
27202;BME280;14717;46.924;15.474;2023-05-17T11:45:49;97730.94;;;14.51;59.20
27202;BME280;14717;46.924;15.474;2023-05-17T11:48:17;97745.00;;;14.54;60.51
27202;BME280;14717;46.924;15.474;2023-05-17T11:50:44;97743.81;;;14.47;59.39
27202;BME280;14717;46.924;15.474;2023-05-17T11:53:11;97754.91;;;14.39;58.87
27202;BME280;14717;46.924;15.474;2023-05-17T11:55:44;97754.72;;;14.35;60.28
27202;BME280;14717;46.924;15.474;2023-05-17T11:58:13;97766.47;;;14.32;60.94
27202;BME280;14717;46.924;15.474;2023-05-17T12:00:40;97765.00;;;14.26;61.42
27202;BME280;14717;46.924;15.474;2023-05-17T12:05:45;97774.22;;;14.13;62.44
27202;BME280;14717;46.924;15.474;2023-05-17T12:08:11;97782.28;;;14.02;62.07
27202;BME280;14717;46.924;15.474;2023-05-17T12:10:43;97781.38;;;13.93;62.36
27202;BME280;14717;46.924;15.474;2023-05-17T12:13:09;97786.56;;;13.86;62.97
27202;BME280;14717;46.924;15.474;2023-05-17T12:15:34;97794.97;;;13.72;65.00
27202;BME280;14717;46.924;15.474;2023-05-17T12:18:00;97797.03;;;13.67;66.56
27202;BME280;14717;46.924;15.474;2023-05-17T12:20:25;97790.47;;;13.63;69.63
27202;BME280;14717;46.924;15.474;2023-05-17T12:22:54;97794.91;;;13.64;67.83
27202;BME280;14717;46.924;15.474;2023-05-17T12:25:21;97809.09;;;13.62;69.04
27202;BME280;14717;46.924;15.474;2023-05-17T12:27:50;97820.38;;;13.66;70.00
27202;BME280;14717;46.924;15.474;2023-05-17T12:30:18;97827.91;;;13.65;67.04
27202;BME280;14717;46.924;15.474;2023-05-17T12:32:44;97827.50;;;13.59;67.68
27202;BME280;14717;46.924;15.474;2023-05-17T12:35:09;97832.00;;;13.68;69.88
27202;BME280;14717;46.924;15.474;2023-05-17T12:37:36;97834.69;;;13.60;67.81
27202;BME280;14717;46.924;15.474;2023-05-17T12:40:02;97846.41;;;13.57;70.43
27202;BME280;14717;46.924;15.474;2023-05-17T12:42:30;97848.09;;;13.44;70.56
27202;BME280;14717;46.924;15.474;2023-05-17T12:44:58;97853.22;;;13.37;69.51
27202;BME280;14717;46.924;15.474;2023-05-17T12:47:30;97868.47;;;13.26;71.87
27202;BME280;14717;46.924;15.474;2023-05-17T12:49:59;97863.75;;;13.27;71.33
27202;BME280;14717;46.924;15.474;2023-05-17T12:52:24;97865.41;;;13.15;75.10
27202;BME280;14717;46.924;15.474;2023-05-17T12:54:50;97876.28;;;13.11;74.67
27202;BME280;14717;46.924;15.474;2023-05-17T12:57:16;97880.19;;;13.10;76.31
27202;BME280;14717;46.924;15.474;2023-05-17T12:59:51;97877.72;;;12.95;77.87
27202;BME280;14717;46.924;15.474;2023-05-17T13:02:18;97872.75;;;12.79;79.11
27202;BME280;14717;46.924;15.474;2023-05-17T13:04:44;97869.91;;;12.84;81.39
27202;BME280;14717;46.924;15.474;2023-05-17T13:07:10;97878.09;;;12.75;80.08
27202;BME280;14717;46.924;15.474;2023-05-17T13:09:45;97876.38;;;12.93;83.66
27202;BME280;14717;46.924;15.474;2023-05-17T13:12:20;97880.38;;;12.87;82.46
27202;BME280;14717;46.924;15.474;2023-05-17T13:14:47;97878.84;;;12.81;82.24
27202;BME280;14717;46.924;15.474;2023-05-17T13:17:23;97879.41;;;12.78;83.40
27202;BME280;14717;46.924;15.474;2023-05-17T13:19:49;97891.22;;;12.70;79.68
27202;BME280;14717;46.924;15.474;2023-05-17T13:22:15;97884.84;;;12.70;79.98
27202;BME280;14717;46.924;15.474;2023-05-17T13:24:41;97891.09;;;12.62;81.27
27202;BME280;14717;46.924;15.474;2023-05-17T13:27:07;97895.50;;;12.63;81.07
27202;BME280;14717;46.924;15.474;2023-05-17T13:29:37;97907.28;;;12.55;82.71
27202;BME280;14717;46.924;15.474;2023-05-17T13:32:02;97898.25;;;12.49;85.20
27202;BME280;14717;46.924;15.474;2023-05-17T13:34:28;97896.19;;;12.41;84.75
27202;BME280;14717;46.924;15.474;2023-05-17T13:36:53;97909.44;;;12.44;84.81
27202;BME280;14717;46.924;15.474;2023-05-17T13:39:21;97907.78;;;12.43;84.18
27202;BME280;14717;46.924;15.474;2023-05-17T13:41:46;97910.53;;;12.43;84.08
27202;BME280;14717;46.924;15.474;2023-05-17T13:44:12;97903.09;;;12.57;86.76
27202;BME280;14717;46.924;15.474;2023-05-17T13:46:37;97910.88;;;12.55;86.37